Time;durP1;ratioP1;P1;durP2;ratioP2;P2;SDS_P1;SDS_P2;PMS_P1;PMS_P2;Temp;Humidity;BMP_temperature;BMP_pressure;BME280_temperature;BME280_humidity;BME280_pressure;Samples;Min_cycle;Max_cycle;Signal;HPM_P1;HPM_P2
2022/10/28 00:01:07;;;;;;;24.88;12.15;;;15.10;99.90;;;;;;4969870;28;20031;-73
2022/10/28 00:03:36;;;;;;;22.80;11.25;;;15.00;99.90;;;;;;4970023;28;20525;-73
2022/10/28 00:06:07;;;;;;;26.13;12.25;;;15.00;99.90;;;;;;4970074;28;20031;-73
2022/10/28 00:08:33;;;;;;;21.45;11.38;;;15.00;99.90;;;;;;4969955;28;20113;-73
2022/10/28 00:11:26;;;;;;;27.48;12.07;;;15.00;99.90;;;;;;4987218;28;20036;-73
2022/10/28 00:13:53;;;;;;;18.55;10.85;;;14.90;99.90;;;;;;4986048;28;20149;-73
2022/10/28 00:16:21;;;;;;;26.15;11.77;;;14.90;99.90;;;;;;4968758;28;20125;-73
2022/10/28 00:18:49;;;;;;;23.13;11.88;;;14.90;99.90;;;;;;4989003;28;20699;-73
2022/10/28 00:21:17;;;;;;;23.45;11.25;;;14.90;99.90;;;;;;4971740;28;20061;-73
2022/10/28 00:23:43;;;;;;;27.60;12.63;;;14.90;99.90;;;;;;4989164;28;20101;-73
2022/10/28 00:26:14;;;;;;;23.80;11.68;;;14.80;99.90;;;;;;4989025;28;20544;-73
2022/10/28 00:28:47;;;;;;;24.35;11.60;;;14.90;99.90;;;;;;4989448;28;20053;-72
2022/10/28 00:31:15;;;;;;;22.10;11.80;;;14.80;99.90;;;;;;4987934;28;20026;-73
2022/10/28 00:33:41;;;;;;;22.58;12.20;;;14.80;99.90;;;;;;4989176;28;20038;-73
2022/10/28 00:36:11;;;;;;;25.00;12.32;;;14.80;99.90;;;;;;4989364;28;20489;-73
2022/10/28 00:38:37;;;;;;;24.02;12.20;;;14.80;99.90;;;;;;4988619;28;20088;-72
2022/10/28 00:41:03;;;;;;;25.08;12.13;;;14.80;99.90;;;;;;4988627;28;20038;-73
2022/10/28 00:43:41;;;;;;;20.90;10.68;;;14.80;99.90;;;;;;4971481;28;20040;-73
2022/10/28 00:46:38;;;;;;;24.15;11.20;;;14.80;99.90;;;;;;4971497;28;20040;-73
2022/10/28 00:49:13;;;;;;;22.42;12.23;;;14.70;99.90;;;;;;4982051;28;20117;-72
2022/10/28 00:51:40;;;;;;;24.08;12.57;;;14.60;99.90;;;;;;4988788;28;20057;-73
2022/10/28 00:54:06;;;;;;;19.30;11.43;;;14.50;99.90;;;;;;4988908;28;20092;-72
2022/10/28 00:56:38;;;;;;;24.58;12.57;;;14.50;99.90;;;;;;4989121;28;20085;-72
2022/10/28 00:59:10;;;;;;;20.77;10.52;;;14.50;99.90;;;;;;4987186;28;20489;-73
2022/10/28 01:01:36;;;;;;;20.92;12.85;;;14.40;99.90;;;;;;4988512;28;20038;-73
2022/10/28 01:04:02;;;;;;;18.45;10.77;;;14.40;99.90;;;;;;4988922;28;20508;-73
2022/10/28 01:06:28;;;;;;;17.83;10.65;;;14.30;99.90;;;;;;4987819;28;20133;-73
2022/10/28 01:08:54;;;;;;;22.63;12.20;;;14.30;99.90;;;;;;4980724;28;20184;-73
2022/10/28 01:11:31;;;;;;;24.95;11.38;;;14.30;99.90;;;;;;4977437;28;20225;-73
2022/10/28 01:14:02;;;;;;;21.05;11.30;;;14.40;99.90;;;;;;4967906;28;20480;-73
2022/10/28 01:16:31;;;;;;;23.75;11.77;;;14.60;99.90;;;;;;4972622;28;20501;-73
2022/10/28 01:19:24;;;;;;;29.70;13.32;;;14.90;99.90;;;;;;4988218;28;20038;-73
2022/10/28 01:22:12;;;;;;;26.15;12.48;;;15.20;99.90;;;;;;4988219;28;20034;-73
2022/10/28 01:24:52;;;;;;;29.38;14.43;;;15.40;99.90;;;;;;4988105;28;20092;-73
2022/10/28 01:28:02;;;;;;;24.33;11.73;;;15.60;99.90;;;;;;4988237;28;20037;-74
2022/10/28 01:30:56;;;;;;;24.00;11.77;;;15.80;99.90;;;;;;4988201;28;20029;-73
2022/10/28 01:33:42;;;;;;;29.50;12.75;;;15.90;99.90;;;;;;4947328;28;20687;-73
2022/10/28 01:36:21;;;;;;;28.75;12.60;;;16.00;99.90;;;;;;4969712;28;20034;-74
2022/10/28 01:39:11;;;;;;;27.05;10.82;;;16.20;99.90;;;;;;4970543;28;20065;-73
2022/10/28 01:41:46;;;;;;;24.25;10.23;;;16.30;99.90;;;;;;4988427;28;20034;-73
2022/10/28 01:44:20;;;;;;;26.92;10.57;;;16.30;99.90;;;;;;4970552;28;20027;-74
2022/10/28 01:47:09;;;;;;;28.13;11.85;;;16.50;99.90;;;;;;4988167;28;20034;-74
2022/10/28 01:49:45;;;;;;;20.92;8.93;;;16.50;99.90;;;;;;4987446;28;20042;-74
2022/10/28 01:52:13;;;;;;;20.08;9.18;;;16.50;99.90;;;;;;4987876;28;20030;-73
2022/10/28 01:54:43;;;;;;;21.52;9.75;;;16.60;99.90;;;;;;4987782;28;20609;-73
2022/10/28 01:57:11;;;;;;;23.05;9.45;;;16.60;99.90;;;;;;4988095;28;20693;-74
2022/10/28 01:59:38;;;;;;;17.88;8.55;;;16.70;99.90;;;;;;4987625;28;20173;-74
2022/10/28 02:02:04;;;;;;;22.25;9.13;;;16.70;99.90;;;;;;4987541;28;20436;-74
2022/10/28 02:04:29;;;;;;;17.83;8.07;;;16.70;99.90;;;;;;4988118;28;20137;-73
2022/10/28 02:06:57;;;;;;;21.83;9.10;;;16.80;99.90;;;;;;4987874;28;20077;-74
2022/10/28 02:09:31;;;;;;;23.33;10.57;;;16.80;99.90;;;;;;4987711;28;20046;-74
2022/10/28 02:12:27;;;;;;;22.10;8.63;;;16.70;99.90;;;;;;4969746;28;20107;-73
2022/10/28 02:14:56;;;;;;;27.45;9.50;;;16.80;99.90;;;;;;4987661;28;20053;-73
2022/10/28 02:17:27;;;;;;;22.50;8.90;;;16.70;99.90;;;;;;4987832;28;20038;-74
2022/10/28 02:19:59;;;;;;;22.27;9.05;;;16.80;99.90;;;;;;4987748;28;20065;-74
2022/10/28 02:22:49;;;;;;;23.77;8.80;;;16.80;99.90;;;;;;4970010;28;20035;-73
2022/10/28 02:25:30;;;;;;;19.60;8.07;;;16.80;99.90;;;;;;4987578;28;20117;-72
2022/10/28 02:28:04;;;;;;;17.80;7.32;;;16.80;99.90;;;;;;4987766;28;20034;-74
2022/10/28 02:30:44;;;;;;;15.35;7.22;;;16.80;99.90;;;;;;4970173;28;20034;-74
2022/10/28 02:33:11;;;;;;;;;;;16.80;99.90;;;;;;4987961;28;20130;-74
2022/10/28 02:35:47;;;;;;;17.33;8.05;;;16.90;99.90;;;;;;4987695;28;19914;-73
2022/10/28 02:38:17;;;;;;;22.65;7.63;;;16.90;99.90;;;;;;4970229;28;20030;-74
2022/10/28 02:40:44;;;;;;;;;;;16.90;99.90;;;;;;4991836;28;20069;-73
2022/10/28 02:43:14;;;;;;;18.67;7.38;;;17.00;99.90;;;;;;4973962;28;19916;-72
2022/10/28 02:45:41;;;;;;;;;;;17.00;99.90;;;;;;4991795;28;20041;-73
2022/10/28 02:48:12;;;;;;;20.77;7.10;;;17.00;99.90;;;;;;4991366;28;19906;-72
2022/10/28 02:50:42;;;;;;;19.52;7.50;;;17.00;99.90;;;;;;4991222;28;20054;-73
2022/10/28 02:53:17;;;;;;;20.38;7.32;;;17.00;99.90;;;;;;4990859;28;20045;-72
2022/10/28 02:55:47;;;;;;;18.55;7.07;;;17.10;99.90;;;;;;4972888;28;20126;-72
2022/10/28 02:58:13;;;;;;;19.13;7.28;;;17.10;99.90;;;;;;4990725;28;20551;-73
2022/10/28 03:00:43;;;;;;;18.10;6.55;;;17.10;99.90;;;;;;4990948;28;20036;-72
2022/10/28 03:03:09;;;;;;;17.23;6.55;;;17.10;99.90;;;;;;4973527;28;20142;-71
2022/10/28 03:05:35;;;;;;;20.80;6.68;;;17.10;99.90;;;;;;4989557;28;20042;-72
2022/10/28 03:08:00;;;;;;;18.05;6.85;;;17.00;99.90;;;;;;4990357;28;20030;-73
2022/10/28 03:10:26;;;;;;;19.88;7.13;;;17.00;99.90;;;;;;4990423;28;20038;-72
2022/10/28 03:12:51;;;;;;;16.75;7.45;;;16.90;99.90;;;;;;4990484;28;20042;-73
2022/10/28 03:15:17;;;;;;;18.60;6.38;;;16.80;99.90;;;;;;4973116;28;20038;-72
2022/10/28 03:17:42;;;;;;;18.60;7.00;;;16.80;99.90;;;;;;4968334;28;20034;-72
2022/10/28 03:20:09;;;;;;;24.60;7.78;;;16.70;99.90;;;;;;4986478;28;20034;-72
2022/10/28 03:22:34;;;;;;;24.17;7.75;;;16.60;99.90;;;;;;4989727;28;20067;-72
2022/10/28 03:25:00;;;;;;;19.20;7.63;;;16.40;99.90;;;;;;4990240;28;20061;-71
2022/10/28 03:27:26;;;;;;;19.27;7.35;;;16.30;99.90;;;;;;4989824;28;20629;-72
2022/10/28 03:29:51;;;;;;;20.75;7.35;;;16.20;99.90;;;;;;4990072;28;20030;-72
2022/10/28 03:32:17;;;;;;;18.90;7.85;;;16.10;99.90;;;;;;4990371;28;20530;-72
2022/10/28 03:34:43;;;;;;;17.05;7.38;;;16.10;99.90;;;;;;4990495;28;20109;-72
2022/10/28 03:37:08;;;;;;;21.88;8.07;;;16.00;99.90;;;;;;4990350;28;20037;-72
2022/10/28 03:39:34;;;;;;;20.20;8.30;;;16.00;99.90;;;;;;4989497;28;20034;-73
2022/10/28 03:41:59;;;;;;;19.67;7.80;;;15.90;99.90;;;;;;4989561;28;20026;-72
2022/10/28 03:44:25;;;;;;;18.13;6.35;;;15.80;99.90;;;;;;4990322;28;20081;-72
2022/10/28 03:46:51;;;;;;;19.20;7.53;;;15.80;99.90;;;;;;4990148;28;20089;-73
2022/10/28 03:49:16;;;;;;;17.95;7.53;;;15.80;99.90;;;;;;4989960;28;20030;-72
2022/10/28 03:51:42;;;;;;;18.85;6.78;;;15.80;99.90;;;;;;4989022;28;20033;-72
2022/10/28 03:54:07;;;;;;;22.10;6.40;;;15.90;99.90;;;;;;4989634;28;20038;-74
2022/10/28 03:56:33;;;;;;;18.35;6.35;;;16.10;99.90;;;;;;4989456;28;20046;-72
2022/10/28 03:58:58;;;;;;;20.13;6.88;;;16.30;99.90;;;;;;4989600;28;20074;-71
2022/10/28 04:01:24;;;;;;;15.85;6.30;;;16.40;99.90;;;;;;4989125;28;20030;-73
2022/10/28 04:03:50;;;;;;;17.95;6.00;;;16.50;99.90;;;;;;5004702;28;20026;-73
2022/10/28 04:06:15;;;;;;;19.38;5.75;;;16.70;99.90;;;;;;4972179;28;20030;-72
2022/10/28 04:08:41;;;;;;;16.85;5.90;;;16.70;99.90;;;;;;4989747;28;20038;-73
2022/10/28 04:11:07;;;;;;;17.88;5.40;;;16.80;99.90;;;;;;4989657;28;20088;-72
2022/10/28 04:13:33;;;;;;;14.73;5.57;;;16.90;99.90;;;;;;4989985;28;20121;-72
2022/10/28 04:16:00;;;;;;;20.67;5.95;;;16.90;99.90;;;;;;4989594;28;20039;-72
2022/10/28 04:18:26;;;;;;;20.48;5.78;;;16.90;99.90;;;;;;4989461;28;20030;-72
2022/10/28 04:20:52;;;;;;;19.25;5.72;;;17.00;99.90;;;;;;4972111;28;20052;-72
2022/10/28 04:23:18;;;;;;;18.20;6.28;;;17.00;99.90;;;;;;4989398;28;20392;-73
2022/10/28 04:25:43;;;;;;;22.02;6.55;;;17.10;99.90;;;;;;4989141;28;20030;-72
2022/10/28 04:28:09;;;;;;;18.30;5.55;;;17.10;99.90;;;;;;4989437;28;20757;-72
2022/10/28 04:30:35;;;;;;;17.95;6.20;;;17.10;99.90;;;;;;4989593;28;20044;-74
2022/10/28 04:33:00;;;;;;;17.13;5.47;;;17.00;99.90;;;;;;4989703;28;20038;-73
2022/10/28 04:35:26;;;;;;;17.70;6.43;;;17.00;99.90;;;;;;4988530;28;20034;-73
2022/10/28 04:37:51;;;;;;;16.95;5.78;;;16.90;99.90;;;;;;4988396;28;20035;-73
2022/10/28 04:40:17;;;;;;;21.70;5.82;;;16.80;99.90;;;;;;4988458;28;20128;-73
2022/10/28 04:42:43;;;;;;;22.88;6.47;;;16.80;99.90;;;;;;4988749;28;20038;-73
2022/10/28 04:45:09;;;;;;;20.20;5.80;;;16.70;99.90;;;;;;4988692;28;20084;-73
2022/10/28 04:47:34;;;;;;;17.40;5.93;;;16.60;99.90;;;;;;4971027;28;20186;-73
2022/10/28 04:50:00;;;;;;;16.75;5.00;;;16.60;99.90;;;;;;4988797;28;20125;-73
2022/10/28 04:52:26;;;;;;;16.65;5.85;;;16.70;99.90;;;;;;4988756;28;20073;-73
2022/10/28 04:54:51;;;;;;;15.38;5.50;;;16.60;99.90;;;;;;4970902;28;20034;-73
2022/10/28 04:57:17;;;;;;;23.13;6.38;;;16.70;99.90;;;;;;4988867;28;20035;-73
2022/10/28 04:59:42;;;;;;;15.82;5.60;;;16.70;99.90;;;;;;4971083;28;20388;-72
2022/10/28 05:02:08;;;;;;;20.98;5.88;;;16.70;99.90;;;;;;4988208;28;20447;-73
2022/10/28 05:04:34;;;;;;;17.45;6.05;;;16.70;99.90;;;;;;4988813;28;20033;-73
2022/10/28 05:06:59;;;;;;;22.85;5.85;;;16.70;99.90;;;;;;4988706;28;20499;-73
2022/10/28 05:09:25;;;;;;;21.63;6.18;;;16.70;99.90;;;;;;4970768;28;20030;-74
2022/10/28 05:11:50;;;;;;;18.80;6.07;;;16.70;99.90;;;;;;4987804;28;20440;-73
2022/10/28 05:14:16;;;;;;;21.10;6.25;;;16.70;99.90;;;;;;4988555;28;20034;-73
2022/10/28 05:16:42;;;;;;;17.48;6.57;;;16.70;99.90;;;;;;4988528;28;20019;-73
2022/10/28 05:19:07;;;;;;;21.48;6.55;;;16.60;99.90;;;;;;4988689;28;20397;-73
2022/10/28 05:21:33;;;;;;;23.10;5.95;;;16.60;99.90;;;;;;4984490;28;20038;-73
2022/10/28 05:23:58;;;;;;;19.02;5.85;;;16.60;99.90;;;;;;4954079;28;20035;-73
2022/10/28 05:26:24;;;;;;;19.33;5.88;;;16.60;99.90;;;;;;4968975;28;20038;-73
2022/10/28 05:28:50;;;;;;;20.17;6.22;;;16.60;99.90;;;;;;4968862;28;20070;-73
2022/10/28 05:31:16;;;;;;;19.23;6.65;;;16.60;99.90;;;;;;4968393;28;20038;-73
2022/10/28 05:33:41;;;;;;;16.35;5.40;;;16.70;99.90;;;;;;4967226;28;20034;-73
2022/10/28 05:36:07;;;;;;;19.58;6.05;;;16.70;99.90;;;;;;4967525;28;20030;-73
2022/10/28 05:38:33;;;;;;;16.48;6.13;;;16.70;99.90;;;;;;4968572;28;20458;-73
2022/10/28 05:40:58;;;;;;;20.00;7.20;;;16.70;99.90;;;;;;4968176;28;20031;-73
2022/10/28 05:43:24;;;;;;;20.65;6.22;;;16.70;99.90;;;;;;4968340;28;20053;-73
2022/10/28 05:45:54;;;;;;;14.23;5.63;;;16.70;99.90;;;;;;4984057;28;20092;-73
2022/10/28 05:48:21;;;;;;;20.05;5.55;;;16.70;99.90;;;;;;4987869;28;20086;-73
2022/10/28 05:50:47;;;;;;;17.42;5.35;;;16.60;99.90;;;;;;4987582;28;20042;-73
2022/10/28 05:53:13;;;;;;;20.95;5.80;;;16.60;99.90;;;;;;4987400;28;20027;-73
2022/10/28 05:55:39;;;;;;;17.88;5.70;;;16.50;99.90;;;;;;4987792;28;20481;-73
2022/10/28 05:58:04;;;;;;;19.65;5.90;;;16.40;99.90;;;;;;4988120;28;20038;-73
2022/10/28 06:00:30;;;;;;;22.92;6.78;;;16.40;99.90;;;;;;4986007;28;20038;-73
2022/10/28 06:03:09;;;;;;;22.17;6.57;;;16.40;99.90;;;;;;4981329;28;20027;-72
2022/10/28 06:05:44;;;;;;;19.97;5.87;;;16.30;99.90;;;;;;4985082;28;20030;-74
2022/10/28 06:08:12;;;;;;;19.63;5.65;;;16.40;99.90;;;;;;4987944;28;20027;-73
2022/10/28 06:10:37;;;;;;;19.30;5.75;;;16.60;99.90;;;;;;4987669;28;20085;-73
2022/10/28 06:13:03;;;;;;;17.30;5.97;;;16.70;99.90;;;;;;4987391;28;20497;-73
2022/10/28 06:15:29;;;;;;;21.20;5.32;;;16.90;99.90;;;;;;4991559;28;20512;-72
2022/10/28 06:17:54;;;;;;;22.50;6.15;;;17.00;99.90;;;;;;4991758;28;20038;-73
2022/10/28 06:20:20;;;;;;;20.88;5.95;;;17.10;99.90;;;;;;4990173;28;20521;-73
2022/10/28 06:22:50;;;;;;;19.45;5.72;;;17.20;99.90;;;;;;4991431;28;20271;-73
2022/10/28 06:25:17;;;;;;;17.23;5.57;;;17.20;99.90;;;;;;4991342;28;20053;-74
2022/10/28 06:27:42;;;;;;;22.58;6.18;;;17.20;99.90;;;;;;4989584;28;20058;-73
2022/10/28 06:30:08;;;;;;;23.13;6.30;;;17.30;99.90;;;;;;4991165;28;20060;-73
2022/10/28 06:32:34;;;;;;;18.98;5.88;;;17.30;99.90;;;;;;4991257;28;20551;-73
2022/10/28 06:35:00;;;;;;;21.70;6.07;;;17.30;99.90;;;;;;4991247;28;20042;-73
2022/10/28 06:37:25;;;;;;;19.27;6.15;;;17.30;99.90;;;;;;4991617;28;20486;-73
2022/10/28 06:39:52;;;;;;;21.77;5.97;;;17.30;99.90;;;;;;4991612;28;20037;-74
2022/10/28 06:42:18;;;;;;;21.15;5.78;;;17.30;99.90;;;;;;4991172;28;20485;-74
2022/10/28 06:44:44;;;;;;;19.45;6.05;;;17.30;99.90;;;;;;4991374;28;20058;-74
2022/10/28 06:47:10;;;;;;;20.00;6.97;;;17.30;99.90;;;;;;4991171;28;20049;-74
2022/10/28 06:49:35;;;;;;;19.88;6.70;;;17.40;99.90;;;;;;4989615;28;20034;-73
2022/10/28 06:52:01;;;;;;;23.25;6.20;;;17.40;99.90;;;;;;4990990;28;20077;-74
2022/10/28 06:54:27;;;;;;;24.52;6.32;;;17.40;99.90;;;;;;4991231;28;20030;-73
2022/10/28 06:56:53;;;;;;;26.38;6.28;;;17.40;99.90;;;;;;4991298;28;20434;-73
2022/10/28 06:59:18;;;;;;;22.25;6.43;;;17.40;99.90;;;;;;4991246;28;20030;-74
2022/10/28 07:01:44;;;;;;;20.77;5.85;;;17.50;99.90;;;;;;4991067;28;20022;-73
2022/10/28 07:04:11;;;;;;;25.67;6.68;;;17.40;99.90;;;;;;4990774;28;20038;-73
2022/10/28 07:06:37;;;;;;;20.15;6.18;;;17.40;99.90;;;;;;4990715;28;20096;-74
2022/10/28 07:09:03;;;;;;;23.83;5.57;;;17.30;99.90;;;;;;4990323;28;20030;-74
2022/10/28 07:11:29;;;;;;;21.38;6.10;;;17.30;99.90;;;;;;4991003;28;20034;-73
2022/10/28 07:13:54;;;;;;;22.40;6.30;;;17.30;99.90;;;;;;4972882;28;20484;-74
2022/10/28 07:16:20;;;;;;;19.45;5.60;;;17.20;99.90;;;;;;4989694;28;20043;-73
2022/10/28 07:18:45;;;;;;;24.80;6.70;;;17.20;99.90;;;;;;4990032;28;20030;-73
2022/10/28 07:21:12;;;;;;;26.52;6.18;;;17.20;99.90;;;;;;4990780;28;20034;-74
2022/10/28 07:23:38;;;;;;;22.05;6.50;;;17.20;99.90;;;;;;4990643;28;20049;-73
2022/10/28 07:26:04;;;;;;;32.53;6.72;;;17.20;99.90;;;;;;4990357;28;20500;-73
2022/10/28 07:28:30;;;;;;;26.27;6.25;;;17.20;99.90;;;;;;4990314;28;20034;-72
2022/10/28 07:31:00;;;;;;;22.05;6.00;;;17.20;99.90;;;;;;4990443;28;20030;-73
2022/10/28 07:33:26;;;;;;;23.02;6.75;;;17.20;99.90;;;;;;4972796;28;20481;-73
2022/10/28 07:35:51;;;;;;;23.70;6.18;;;17.30;99.90;;;;;;4990006;28;20046;-73
2022/10/28 07:38:17;;;;;;;24.02;6.20;;;17.30;99.90;;;;;;4990042;28;20035;-73
2022/10/28 07:40:43;;;;;;;25.40;6.05;;;17.30;99.90;;;;;;4972626;28;20512;-75
2022/10/28 07:43:08;;;;;;;28.65;6.47;;;17.40;99.90;;;;;;4990136;28;20136;-73
2022/10/28 07:45:35;;;;;;;24.88;5.85;;;17.40;99.90;;;;;;4989705;28;20103;-73
2022/10/28 07:48:00;;;;;;;30.73;6.78;;;17.40;99.90;;;;;;4971873;28;20022;-72
2022/10/28 07:50:26;;;;;;;20.67;5.75;;;17.40;99.90;;;;;;4972536;28;20030;-74
2022/10/28 07:52:52;;;;;;;24.85;5.97;;;17.50;99.90;;;;;;4989998;28;20038;-74
2022/10/28 07:55:20;;;;;;;27.77;5.82;;;17.50;99.90;;;;;;4989214;28;20042;-73
2022/10/28 07:57:46;;;;;;;18.58;4.75;;;17.50;99.90;;;;;;4989782;28;20022;-73
2022/10/28 08:00:12;;;;;;;16.60;4.70;;;17.60;99.90;;;;;;4989508;28;20100;-73
2022/10/28 08:02:38;;;;;;;20.40;4.75;;;17.60;99.90;;;;;;4989597;28;20707;-75
2022/10/28 08:05:04;;;;;;;18.27;4.78;;;17.70;99.90;;;;;;4970261;28;20037;-72
2022/10/28 08:07:30;;;;;;;15.93;3.70;;;17.80;99.90;;;;;;4976145;28;20066;-73
2022/10/28 08:09:57;;;;;;;18.40;4.68;;;17.80;99.90;;;;;;4969029;28;20042;-73
2022/10/28 08:12:22;;;;;;;17.85;4.10;;;17.90;99.90;;;;;;4972669;28;20054;-74
2022/10/28 08:14:48;;;;;;;17.48;4.80;;;18.00;99.90;;;;;;4977244;28;20066;-73
2022/10/28 08:17:13;;;;;;;15.40;4.22;;;18.00;99.90;;;;;;4969942;28;20473;-73
2022/10/28 08:19:39;;;;;;;15.82;3.65;;;18.10;99.90;;;;;;4970128;28;20105;-74
2022/10/28 08:22:07;;;;;;;17.52;4.25;;;18.10;99.90;;;;;;4968612;28;20035;-73
2022/10/28 08:24:32;;;;;;;14.63;3.72;;;18.20;99.90;;;;;;4969971;28;20062;-75
2022/10/28 08:26:58;;;;;;;20.38;4.45;;;18.30;99.90;;;;;;4969906;28;20662;-74
2022/10/28 08:29:24;;;;;;;20.45;4.20;;;18.30;99.90;;;;;;4969841;28;20030;-73
2022/10/28 08:31:49;;;;;;;13.35;3.78;;;18.40;99.90;;;;;;4968454;28;20042;-74
2022/10/28 08:34:15;;;;;;;15.18;3.70;;;18.40;99.90;;;;;;4969836;28;20035;-74
2022/10/28 08:36:40;;;;;;;13.80;3.85;;;18.40;99.90;;;;;;4968827;28;20386;-74
2022/10/28 08:39:06;;;;;;;16.83;4.07;;;18.30;99.90;;;;;;4968325;28;20117;-73
2022/10/28 08:42:21;;;;;;;16.90;3.83;;;18.30;99.90;;;;;;4968352;28;20039;-74
2022/10/28 08:45:01;;;;;;;15.88;3.80;;;18.30;99.90;;;;;;4920116;28;20053;-73
2022/10/28 08:47:32;;;;;;;18.58;3.63;;;18.30;99.90;;;;;;4969585;28;20037;-74
2022/10/28 08:50:03;;;;;;;13.45;4.05;;;18.30;99.90;;;;;;4967884;28;20122;-74
2022/10/28 08:52:40;;;;;;;17.55;4.03;;;18.30;99.90;;;;;;4967612;28;20035;-73
2022/10/28 08:55:11;;;;;;;23.88;4.45;;;18.30;99.90;;;;;;4969521;28;20125;-74
2022/10/28 08:57:56;;;;;;;25.58;3.72;;;18.30;99.90;;;;;;4968092;28;20058;-73
2022/10/28 09:00:27;;;;;;;16.42;3.30;;;18.30;99.90;;;;;;4969289;28;20490;-72
2022/10/28 09:03:10;;;;;;;14.77;2.80;;;18.20;99.90;;;;;;4969079;28;20042;-74
2022/10/28 09:05:49;;;;;;;9.18;1.90;;;18.20;99.90;;;;;;4969298;28;20042;-73
2022/10/28 09:08:24;;;;;;;10.27;2.13;;;18.10;99.90;;;;;;4969446;28;20058;-74
2022/10/28 09:11:07;;;;;;;9.85;2.17;;;18.00;99.90;;;;;;4980259;28;20034;-73
2022/10/28 09:13:45;;;;;;;11.18;2.10;;;18.00;99.90;;;;;;4971164;28;20042;-74
2022/10/28 09:16:20;;;;;;;8.38;1.58;;;18.00;99.90;;;;;;4988365;28;20034;-72
2022/10/28 09:18:52;;;;;;;9.95;1.98;;;18.00;99.90;;;;;;4988127;28;20477;-72
2022/10/28 09:21:42;;;;;;;9.07;1.67;;;17.90;99.90;;;;;;4988138;28;20037;-72
2022/10/28 09:24:14;;;;;;;;;;;17.90;99.90;;;;;;4988737;28;20053;-73
2022/10/28 09:27:14;;;;;;;8.73;1.50;;;17.90;99.90;;;;;;4988364;28;19949;-74
2022/10/28 09:30:13;;;;;;;9.50;1.73;;;17.90;99.90;;;;;;4982886;28;20129;-73
2022/10/28 09:32:47;;;;;;;11.38;1.50;;;17.80;99.90;;;;;;4969934;28;20052;-74
2022/10/28 09:35:16;;;;;;;12.27;2.30;;;17.80;99.90;;;;;;4987708;28;20042;-74
2022/10/28 09:37:47;;;;;;;;;;;17.80;99.90;;;;;;4970648;28;20043;-74
2022/10/28 09:40:26;;;;;;;12.73;1.70;;;17.80;99.90;;;;;;4988038;28;19905;-73
2022/10/28 09:43:19;;;;;;;10.90;1.80;;;17.80;99.90;;;;;;4987642;28;20093;-74
2022/10/28 09:45:47;;;;;;;10.70;1.70;;;17.70;99.90;;;;;;4969904;28;20034;-73
2022/10/28 09:48:24;;;;;;;13.05;1.88;;;17.70;99.90;;;;;;4969789;28;20026;-74
2022/10/28 09:50:53;;;;;;;13.60;1.92;;;17.70;99.90;;;;;;4984590;28;20031;-73
2022/10/28 09:53:57;;;;;;;10.77;1.83;;;17.80;99.90;;;;;;4967919;28;20105;-73
2022/10/28 09:56:23;;;;;;;14.27;2.15;;;17.80;99.90;;;;;;4967227;28;20050;-74
2022/10/28 09:58:49;;;;;;;13.30;1.83;;;17.80;99.90;;;;;;4969683;28;20500;-73
2022/10/28 10:01:17;;;;;;;11.38;1.70;;;17.90;99.90;;;;;;4969505;28;20034;-73
2022/10/28 10:03:46;;;;;;;10.50;1.83;;;17.80;99.90;;;;;;4987817;28;20045;-74
2022/10/28 10:06:33;;;;;;;12.83;2.30;;;17.90;99.90;;;;;;4988144;28;20045;-72
2022/10/28 10:08:59;;;;;;;13.68;2.15;;;17.90;99.90;;;;;;4969461;28;20042;-72
2022/10/28 10:11:42;;;;;;;13.93;2.40;;;18.00;99.90;;;;;;4987555;28;20105;-72
2022/10/28 10:14:15;;;;;;;16.98;2.63;;;18.00;99.90;;;;;;4988134;28;20041;-72
2022/10/28 10:16:57;;;;;;;16.45;2.65;;;18.00;99.90;;;;;;4987681;28;20074;-72
2022/10/28 10:19:23;;;;;;;16.30;2.78;;;17.90;99.90;;;;;;4987782;28;20030;-73
2022/10/28 10:21:51;;;;;;;13.52;2.38;;;18.00;99.90;;;;;;4967006;28;20034;-72
2022/10/28 10:24:30;;;;;;;17.55;2.60;;;18.10;99.90;;;;;;4978375;28;20026;-72
2022/10/28 10:26:59;;;;;;;17.13;2.80;;;18.10;99.90;;;;;;4987732;28;20057;-72
2022/10/28 10:29:25;;;;;;;17.67;2.60;;;18.30;99.90;;;;;;4969271;28;20401;-72
2022/10/28 10:32:18;;;;;;;14.00;2.33;;;18.40;99.90;;;;;;4987317;28;20310;-73
2022/10/28 10:34:55;;;;;;;14.88;2.47;;;18.40;99.90;;;;;;4969797;28;20034;-72
2022/10/28 10:37:22;;;;;;;18.67;2.45;;;18.50;99.90;;;;;;4987443;28;20117;-75
2022/10/28 10:40:03;;;;;;;17.55;2.67;;;18.50;99.90;;;;;;4987131;28;20027;-72
2022/10/28 10:42:29;;;;;;;17.55;2.83;;;18.40;99.90;;;;;;4987111;28;20038;-71
2022/10/28 10:45:14;;;;;;;25.73;3.50;;;18.40;99.90;;;;;;4986886;28;20026;-72
2022/10/28 10:47:39;;;;;;;16.38;2.50;;;18.40;99.90;;;;;;4986695;28;20445;-73
2022/10/28 10:50:21;;;;;;;17.00;2.53;;;18.40;99.90;;;;;;4986435;28;20034;-73
2022/10/28 10:52:58;;;;;;;17.85;2.38;;;18.50;99.90;;;;;;4977201;28;20050;-73
2022/10/28 10:55:27;;;;;;;16.70;2.13;;;18.50;99.90;;;;;;4967588;28;20089;-73
2022/10/28 10:57:52;;;;;;;11.75;2.40;;;18.70;99.90;;;;;;4966527;28;20027;-72
2022/10/28 11:00:21;;;;;;;14.65;2.70;;;18.80;99.90;;;;;;4969950;28;20445;-72
2022/10/28 11:02:48;;;;;;;13.05;2.85;;;18.70;99.90;;;;;;4971519;28;20094;-72
2022/10/28 11:05:20;;;;;;;14.80;2.15;;;18.60;99.90;;;;;;4971058;28;20078;-71
2022/10/28 11:07:49;;;;;;;15.15;2.75;;;18.40;99.90;;;;;;4967678;28;20405;-71
2022/10/28 11:10:29;;;;;;;13.65;1.92;;;18.20;99.90;;;;;;4989620;28;20038;-71
2022/10/28 11:12:58;;;;;;;17.38;2.67;;;18.10;99.90;;;;;;4983135;28;20050;-72
2022/10/28 11:15:29;;;;;;;17.45;2.58;;;18.10;99.90;;;;;;4970994;28;20089;-70
2022/10/28 11:18:13;;;;;;;14.82;2.10;;;18.00;99.90;;;;;;4978082;28;20033;-72
2022/10/28 11:21:04;;;;;;;13.45;1.85;;;18.00;99.90;;;;;;4973221;28;20027;-73
2022/10/28 11:23:51;;;;;;;17.25;2.35;;;18.10;99.90;;;;;;4990442;28;20089;-73
2022/10/28 11:26:21;;;;;;;19.80;3.13;;;18.00;99.90;;;;;;4990346;28;20034;-72
2022/10/28 11:29:07;;;;;;;15.85;2.10;;;18.00;99.90;;;;;;4989942;28;20022;-72
2022/10/28 11:31:57;;;;;;;10.52;2.00;;;17.90;99.90;;;;;;4989540;28;20030;-73
2022/10/28 11:34:58;;;;;;;18.25;2.08;;;17.90;99.90;;;;;;4971963;28;20030;-72
2022/10/28 11:37:26;;;;;;;20.88;2.55;;;17.80;99.90;;;;;;4947471;28;20453;-72
2022/10/28 11:40:24;;;;;;;19.52;2.63;;;17.90;99.90;;;;;;4989615;28;20030;-73
2022/10/28 11:43:27;;;;;;;19.60;2.42;;;18.00;99.90;;;;;;4989636;28;20026;-73
2022/10/28 11:46:07;;;;;;;15.57;3.08;;;18.00;99.90;;;;;;4972430;28;20129;-73
2022/10/28 11:49:07;;;;;;;16.35;2.38;;;18.00;99.90;;;;;;4989944;28;20030;-72
2022/10/28 11:51:56;;;;;;;13.23;2.67;;;17.90;99.90;;;;;;4989842;28;20040;-72
2022/10/28 11:54:31;;;;;;;16.63;2.38;;;17.90;99.90;;;;;;4989909;28;20045;-72
2022/10/28 11:57:06;;;;;;;16.92;3.05;;;17.90;99.90;;;;;;4989085;28;20050;-73
2022/10/28 11:59:40;;;;;;;17.27;2.60;;;17.90;99.90;;;;;;4987371;28;20092;-72
2022/10/28 12:02:22;;;;;;;20.23;2.17;;;17.90;99.90;;;;;;4977528;28;20030;-73
2022/10/28 12:05:06;;;;;;;18.65;2.70;;;17.90;99.90;;;;;;4968489;28;20031;-72
2022/10/28 12:07:38;;;;;;;19.50;2.35;;;18.00;99.90;;;;;;4982756;28;20037;-73
2022/10/28 12:10:32;;;;;;;15.95;3.28;;;18.00;99.90;;;;;;4989654;28;20058;-73
2022/10/28 12:13:13;;;;;;;13.73;2.50;;;18.00;99.90;;;;;;4960263;28;20161;-75
2022/10/28 12:15:47;;;;;;;11.98;1.92;;;18.00;99.90;;;;;;4989217;28;20772;-74
2022/10/28 12:18:43;;;;;;;16.48;2.42;;;18.10;99.90;;;;;;4989679;28;20041;-73
2022/10/28 12:21:51;;;;;;;13.63;2.03;;;18.20;99.90;;;;;;4989504;28;20121;-73
2022/10/28 12:24:20;;;;;;;16.90;2.78;;;18.40;99.90;;;;;;4954582;28;20034;-74
2022/10/28 12:26:53;;;;;;;20.73;3.28;;;18.40;99.90;;;;;;4967606;28;20042;-73
2022/10/28 12:29:22;;;;;;;17.60;2.67;;;18.50;99.90;;;;;;4969526;28;20486;-72
2022/10/28 12:31:54;;;;;;;19.67;2.92;;;18.40;99.90;;;;;;4968347;28;20082;-74
2022/10/28 12:34:30;;;;;;;13.77;2.40;;;18.30;99.90;;;;;;4969815;28;20086;-74
2022/10/28 12:37:07;;;;;;;17.95;2.63;;;18.20;99.90;;;;;;4969691;28;20394;-74
2022/10/28 12:39:53;;;;;;;19.73;2.60;;;18.00;99.90;;;;;;4969513;28;20058;-73
2022/10/28 12:42:30;;;;;;;19.55;2.67;;;17.90;99.90;;;;;;4968482;28;20039;-74
2022/10/28 12:44:58;;;;;;;16.83;2.50;;;17.90;99.90;;;;;;4969318;28;20438;-73
2022/10/28 12:47:34;;;;;;;18.20;3.10;;;17.90;99.90;;;;;;4952175;28;20457;-75
2022/10/28 12:50:22;;;;;;;19.77;2.78;;;18.00;99.90;;;;;;4969624;28;20065;-73
2022/10/28 12:53:20;;;;;;;17.15;2.83;;;18.00;99.90;;;;;;4963563;28;20034;-74
2022/10/28 12:55:49;;;;;;;18.45;2.95;;;18.10;99.90;;;;;;4969478;28;20046;-73
2022/10/28 12:58:43;;;;;;;9.13;2.00;;;18.10;99.90;;;;;;4969688;28;20027;-73
2022/10/28 13:01:15;;;;;;;12.95;2.40;;;18.20;99.90;;;;;;4968679;28;20050;-73